Date,TemperatureHighF,TemperatureAvgF,TemperatureLowF,DewpointHighF,DewpointAvgF,DewpointLowF,HumidityHigh,HumidityAvg,HumidityLow,PressureMaxIn,PressureMinIn,WindSpeedMaxMPH,WindSpeedAvgMPH,GustSpeedMaxMPH,PrecipitationSumIn
2013-1-1,77,60,46,62,54,45,97,84,58,30.22,30.02,13,2,15,0.00
2013-1-2,79,63,51,69,59,50,97,89,71,30.08,29.96,9,2,16,0.02
2013-1-3,62,57,50,60,55,48,95,93,87,30.25,30.06,8,3,15,0.12
2013-1-4,60,52,47,55,49,45,95,91,82,30.33,30.23,9,2,12,0.00
2013-1-5,66,53,40,56,49,38,96,86,69,30.35,30.26,9,2,12,0.00
2013-1-6,66,57,51,59,55,49,95,91,79,30.26,30.12,10,2,11,0.65
2013-1-7,66,56,46,58,52,44,95,87,71,30.29,30.19,17,5,20,0.00
2013-1-8,70,61,58,66,59,55,95,92,84,30.29,30.20,6,2,12,0.05
2013-1-9,75,65,60,70,63,59,96,93,83,30.35,30.24,5,1,8,0.00
2013-1-10,79,68,60,72,65,58,96,90,74,30.36,30.28,6,1,12,0.13
2013-1-11,83,69,59,70,64,57,96,86,56,30.28,30.17,10,2,13,0.00
2013-1-12,81,68,58,71,64,57,96,87,58,30.22,30.11,8,1,12,0.00
2013-1-13,80,66,55,69,62,54,96,86,62,30.18,30.08,6,1,10,0.00
2013-1-14,81,68,56,69,63,55,96,85,62,30.20,30.11,10,2,13,0.00
2013-1-15,81,69,59,70,64,57,95,85,65,30.17,30.06,8,3,14,0.00
2013-1-16,83,71,60,70,64,58,94,81,54,30.10,29.99,10,2,14,0.00
2013-1-17,79,60,43,67,54,35,96,82,65,30.15,29.89,20,5,25,0.00
2013-1-18,61,52,42,50,44,35,88,75,64,30.40,30.15,24,8,28,0.00
2013-1-19,64,57,50,57,52,46,94,86,77,30.37,30.20,18,5,21,0.00
2013-1-20,72,60,48,58,53,47,95,80,53,30.22,30.08,7,1,12,0.00
2013-1-21,72,57,47,56,50,45,96,80,50,30.14,30.02,8,1,11,0.00
2013-1-22,66,52,39,45,38,34,91,63,33,30.31,30.09,10,3,15,0.00
2013-1-23,67,35,32,42,-7,-100,95,42,36,30.42,30.28,8,1,13,0.00
2013-1-24,75,56,40,55,48,38,95,76,45,30.31,30.19,11,2,20,0.00
2013-1-25,76,60,52,61,54,49,94,83,41,30.33,30.17,12,2,12,0.00
2013-1-26,78,63,48,64,57,46,96,82,61,30.24,30.15,8,2,14,0.00
2013-1-27,71,62,58,60,58,56,93,85,69,30.38,30.23,15,4,19,0.03
2013-1-28,75,64,53,66,60,52,96,88,73,30.38,30.27,11,1,16,0.00
2013-1-29,78,67,57,70,64,56,96,88,74,30.27,30.11,12,3,18,0.00
2013-1-30,85,74,67,68,66,61,92,76,57,30.11,29.79,18,6,26,0.06
2013-1-31,63,52,38,56,40,31,92,66,33,30.25,29.89,12,4,22,0.06